East Cape Girardeau, Illinois
Current Conditions -  °F | °C
As of 5:53 AM on Sunday 25 Jan 2015 (Local Time) from KCGI Reporting Station
Overcast Overcast  
Wind Chill: 35°   Ceiling: 7500
Heat Index: 40°   Visibility: 10mi
Dew Point: 34°   Wind: 7mph
Humidity: 79%   Direction: 200°SSW
Pressure: 29.69"   Gusts: NA
Location:  37.2936°N, 89.43°W
Report Text: KCGI 251153Z AUTO 20006KT 10SM FEW055 BKN075 OVC100 04/01 A2969 RMK AO2 SLP055 T00440011 10061 20033 56013 TSNO
Loading
Personal Weather Stations






























Interactive Weather Map New forecast layout! Learn more

10-Day Weather Forecast

Advertisements
Track Severe Weather on mobile